createdAt,value
2022-12-29T00:01:59.022Z,10.93
2022-12-29T00:04:20.340Z,11.77
2022-12-29T00:06:41.243Z,11.60
2022-12-29T00:09:02.369Z,10.90
2022-12-29T00:11:24.693Z,11.70
2022-12-29T00:14:04.797Z,12.13
2022-12-29T00:16:26.358Z,11.97
2022-12-29T00:18:47.305Z,13.23
2022-12-29T00:21:27.389Z,12.23
2022-12-29T00:24:11.480Z,12.33
2022-12-29T00:26:50.304Z,11.23
2022-12-29T00:29:30.759Z,12.03
2022-12-29T00:32:09.770Z,11.70
2022-12-29T00:34:48.571Z,10.97
2022-12-29T00:37:09.752Z,9.60
2022-12-29T00:39:48.531Z,10.20
2022-12-29T00:42:36.469Z,10.93
2022-12-29T00:44:58.904Z,10.40
2022-12-29T00:47:20.231Z,12.57
2022-12-29T00:49:40.621Z,13.47
2022-12-29T00:52:03.268Z,15.20
2022-12-29T00:54:24.505Z,14.10
2022-12-29T00:56:47.419Z,15.30
2022-12-29T00:59:09.749Z,11.60
2022-12-29T01:01:32.228Z,10.67
2022-12-29T01:04:00.131Z,12.50
2022-12-29T01:06:24.537Z,11.40
2022-12-29T01:08:46.093Z,10.50
2022-12-29T01:11:07.409Z,11.77
2022-12-29T01:13:28.808Z,11.87
2022-12-29T01:15:51.512Z,9.63
2022-12-29T01:18:13.925Z,9.87
2022-12-29T01:20:35.124Z,9.83
2022-12-29T01:22:56.654Z,9.77
2022-12-29T01:25:17.740Z,10.60
2022-12-29T01:27:39.215Z,10.03
2022-12-29T01:30:01.020Z,9.00
2022-12-29T01:32:22.134Z,10.77
2022-12-29T01:34:44.694Z,10.73
2022-12-29T01:37:06.505Z,12.23
2022-12-29T01:39:28.439Z,11.23
2022-12-29T01:41:49.829Z,9.87
2022-12-29T01:44:29.760Z,11.73
2022-12-29T01:46:52.037Z,11.27
2022-12-29T01:49:14.492Z,11.57
2022-12-29T01:51:39.492Z,11.33
2022-12-29T01:54:02.062Z,11.30
2022-12-29T01:56:23.488Z,10.93
2022-12-29T01:58:46.006Z,10.03
2022-12-29T02:01:07.165Z,10.10
2022-12-29T02:03:29.537Z,10.13
2022-12-29T02:05:53.484Z,11.00
2022-12-29T02:08:15.938Z,10.30
2022-12-29T02:10:38.015Z,10.70
2022-12-29T02:12:59.120Z,9.73
2022-12-29T02:15:23.797Z,10.30
2022-12-29T02:17:56.925Z,9.93
2022-12-29T02:20:36.221Z,9.23
2022-12-29T02:23:06.165Z,8.00
2022-12-29T02:25:42.060Z,5.97
2022-12-29T02:28:10.929Z,7.93
2022-12-29T02:30:40.320Z,8.50
2022-12-29T02:33:05.324Z,8.33
2022-12-29T02:35:31.884Z,8.70
2022-12-29T02:37:58.207Z,8.23
2022-12-29T02:40:23.706Z,8.00
2022-12-29T02:42:46.675Z,7.63
2022-12-29T02:45:12.086Z,6.60
2022-12-29T02:47:38.538Z,6.83
2022-12-29T02:50:03.158Z,9.67
2022-12-29T02:52:28.694Z,8.03
2022-12-29T02:54:49.162Z,9.67
2022-12-29T02:57:14.184Z,6.50
2022-12-29T02:59:35.278Z,8.80
2022-12-29T03:02:18.800Z,8.67
2022-12-29T03:04:46.196Z,3.90
2022-12-29T03:07:11.897Z,3.27
2022-12-29T03:09:38.417Z,3.40
2022-12-29T03:12:09.752Z,3.40
2022-12-29T03:14:52.220Z,3.17
2022-12-29T03:17:20.824Z,3.33
2022-12-29T03:19:48.524Z,3.53
2022-12-29T03:22:32.189Z,3.67
2022-12-29T03:24:54.753Z,2.80
2022-12-29T03:27:18.968Z,3.07
2022-12-29T03:29:41.673Z,2.70
2022-12-29T03:32:03.683Z,2.80
2022-12-29T03:34:25.828Z,2.80
2022-12-29T03:36:50.464Z,3.30
2022-12-29T03:39:13.136Z,2.70
2022-12-29T03:41:35.055Z,2.80
2022-12-29T03:43:56.102Z,2.57
2022-12-29T03:46:17.509Z,2.40
2022-12-29T03:48:39.829Z,2.07
2022-12-29T03:51:01.029Z,1.90
2022-12-29T03:53:23.574Z,1.80
2022-12-29T03:55:44.916Z,1.70
2022-12-29T03:58:06.355Z,1.90
2022-12-29T04:00:27.593Z,1.87
2022-12-29T04:02:48.799Z,1.50
2022-12-29T04:05:10.236Z,1.90
2022-12-29T04:07:31.205Z,1.50
2022-12-29T04:09:53.787Z,1.60
2022-12-29T04:12:15.363Z,1.50
2022-12-29T04:14:36.340Z,2.00
2022-12-29T04:16:57.660Z,1.70
2022-12-29T04:19:18.953Z,1.70
2022-12-29T04:21:40.155Z,1.53
2022-12-29T04:24:01.818Z,1.60
2022-12-29T04:26:24.259Z,1.63
2022-12-29T04:28:45.550Z,1.57
2022-12-29T04:31:07.382Z,1.40
2022-12-29T04:33:28.682Z,1.53
2022-12-29T04:35:50.057Z,1.70
2022-12-29T04:38:11.613Z,1.50
2022-12-29T04:40:32.756Z,1.70
2022-12-29T04:42:56.274Z,1.77
2022-12-29T04:45:17.443Z,1.70
2022-12-29T04:47:39.212Z,1.77
2022-12-29T04:50:00.513Z,1.67
2022-12-29T04:52:21.853Z,1.80
2022-12-29T04:54:43.181Z,1.90
2022-12-29T04:57:04.430Z,1.70
2022-12-29T04:59:27.139Z,1.90
2022-12-29T05:01:48.573Z,1.53
2022-12-29T05:04:09.820Z,1.67
2022-12-29T05:06:31.182Z,1.90
2022-12-29T05:08:52.491Z,1.60
2022-12-29T05:11:13.933Z,2.03
2022-12-29T05:13:35.212Z,2.10
2022-12-29T05:15:57.902Z,2.20
2022-12-29T05:18:19.126Z,1.60
2022-12-29T05:20:40.395Z,2.00
2022-12-29T05:23:01.541Z,1.90
2022-12-29T05:25:22.838Z,2.10
2022-12-29T05:27:44.001Z,1.90
2022-12-29T05:30:05.574Z,1.70
2022-12-29T05:32:28.322Z,1.70
2022-12-29T05:34:49.505Z,1.90
2022-12-29T05:37:10.704Z,1.70
2022-12-29T05:39:32.079Z,2.00
2022-12-29T05:41:53.320Z,1.73
2022-12-29T05:44:14.848Z,1.87
2022-12-29T05:46:36.036Z,1.80
2022-12-29T05:48:58.814Z,1.90
2022-12-29T05:51:20.291Z,2.00
2022-12-29T05:53:41.639Z,2.20
2022-12-29T05:56:02.777Z,1.93
2022-12-29T05:58:24.038Z,2.20
2022-12-29T06:00:45.483Z,1.80
2022-12-29T06:03:06.818Z,1.70
2022-12-29T06:05:29.139Z,1.90
2022-12-29T06:07:50.287Z,2.13
2022-12-29T06:10:11.496Z,1.90
2022-12-29T06:12:32.702Z,1.90
2022-12-29T06:14:53.940Z,2.10
2022-12-29T06:17:15.723Z,2.10
2022-12-29T06:19:38.473Z,1.90
2022-12-29T06:22:01.208Z,1.83
2022-12-29T06:24:22.642Z,2.00
2022-12-29T06:26:43.964Z,1.70
2022-12-29T06:29:05.217Z,1.60
2022-12-29T06:31:26.348Z,1.70
2022-12-29T06:33:50.084Z,1.80
2022-12-29T06:36:11.455Z,1.90
2022-12-29T06:38:33.943Z,1.80
2022-12-29T06:40:55.202Z,2.83
2022-12-29T06:43:16.414Z,2.57
2022-12-29T06:45:39.438Z,2.07
2022-12-29T06:48:00.322Z,2.10
2022-12-29T06:50:21.615Z,1.90
2022-12-29T06:52:43.351Z,2.40
2022-12-29T06:55:06.355Z,2.00
2022-12-29T06:57:27.845Z,2.00
2022-12-29T06:59:48.911Z,1.97
2022-12-29T07:02:11.258Z,1.97
2022-12-29T07:04:32.372Z,1.53
2022-12-29T07:06:53.683Z,1.80
2022-12-29T07:09:15.115Z,1.90
2022-12-29T07:11:38.204Z,1.70
2022-12-29T07:14:02.602Z,2.00
2022-12-29T07:16:23.874Z,1.53
2022-12-29T07:18:45.144Z,1.70
2022-12-29T07:21:06.701Z,1.90
2022-12-29T07:23:28.568Z,1.83
2022-12-29T07:25:49.580Z,1.73
2022-12-29T07:28:12.412Z,2.00
2022-12-29T07:30:34.092Z,1.80
2022-12-29T07:32:54.956Z,1.90
2022-12-29T07:35:16.427Z,1.93
2022-12-29T07:37:38.484Z,1.80
2022-12-29T07:39:59.674Z,1.90
2022-12-29T07:42:20.857Z,1.93
2022-12-29T07:44:43.478Z,1.80
2022-12-29T07:47:04.831Z,2.40
2022-12-29T07:49:26.031Z,3.40
2022-12-29T07:51:47.667Z,3.83
2022-12-29T07:54:08.774Z,2.20
2022-12-29T07:56:30.105Z,2.20
2022-12-29T07:58:51.469Z,3.07
2022-12-29T08:01:14.271Z,2.20
2022-12-29T08:03:35.535Z,2.00
2022-12-29T08:05:58.405Z,1.77
2022-12-29T08:08:19.849Z,1.87
2022-12-29T08:10:41.082Z,2.23
2022-12-29T08:13:02.274Z,1.87
2022-12-29T08:15:28.645Z,1.90
2022-12-29T08:17:55.275Z,1.97
2022-12-29T08:20:16.532Z,2.17
2022-12-29T08:22:38.229Z,2.27
2022-12-29T08:24:59.275Z,2.00
2022-12-29T08:27:21.407Z,2.20
2022-12-29T08:29:42.338Z,1.97
2022-12-29T08:32:03.579Z,1.80
2022-12-29T08:34:26.045Z,1.80
2022-12-29T08:36:47.548Z,1.70
2022-12-29T08:39:09.042Z,2.50
2022-12-29T08:41:29.956Z,2.63
2022-12-29T08:43:51.458Z,2.20
2022-12-29T08:46:12.719Z,2.10
2022-12-29T08:48:33.805Z,1.80
2022-12-29T08:50:56.446Z,2.13
2022-12-29T08:53:19.037Z,2.07
2022-12-29T08:55:40.374Z,2.20
2022-12-29T08:58:01.625Z,2.20
2022-12-29T09:00:22.879Z,4.23
2022-12-29T09:02:44.517Z,3.63
2022-12-29T09:05:06.301Z,3.83
2022-12-29T09:07:28.945Z,3.90
2022-12-29T09:09:50.175Z,3.63
2022-12-29T09:12:11.373Z,2.80
2022-12-29T09:14:32.530Z,2.90
2022-12-29T09:17:11.077Z,2.40
2022-12-29T09:19:32.382Z,3.13
2022-12-29T09:21:54.016Z,3.20
2022-12-29T09:24:16.759Z,3.17
2022-12-29T09:26:43.356Z,4.00
2022-12-29T09:29:07.873Z,5.47
2022-12-29T09:31:29.244Z,6.87
2022-12-29T09:33:50.420Z,4.50
2022-12-29T09:36:11.974Z,4.50
2022-12-29T09:38:33.283Z,2.80
2022-12-29T09:40:57.768Z,3.10
2022-12-29T09:43:29.893Z,3.60
2022-12-29T09:45:55.203Z,2.50
2022-12-29T09:48:18.486Z,2.57
2022-12-29T09:50:40.955Z,2.47
2022-12-29T09:53:04.459Z,2.40
2022-12-29T09:55:28.171Z,2.00
2022-12-29T09:57:54.060Z,2.37
2022-12-29T10:00:17.631Z,2.23
2022-12-29T10:02:41.172Z,2.00
2022-12-29T10:05:02.695Z,2.20
2022-12-29T10:07:29.924Z,1.90
2022-12-29T10:09:55.949Z,1.80
2022-12-29T10:12:24.101Z,1.97
2022-12-29T10:14:55.988Z,2.17
2022-12-29T10:17:26.166Z,2.10
2022-12-29T10:19:52.624Z,1.80
2022-12-29T10:22:21.104Z,2.13
2022-12-29T10:24:42.238Z,2.13
2022-12-29T10:27:03.761Z,1.77
2022-12-29T10:29:26.562Z,2.40
2022-12-29T10:31:52.679Z,2.40
2022-12-29T10:34:17.648Z,2.20
2022-12-29T10:36:40.730Z,2.03
2022-12-29T10:39:05.316Z,2.03
2022-12-29T10:41:28.010Z,2.20
2022-12-29T10:43:50.263Z,2.03
2022-12-29T10:46:12.813Z,2.43
2022-12-29T10:48:35.974Z,2.47
2022-12-29T10:51:02.053Z,2.20
2022-12-29T10:53:25.834Z,2.13
2022-12-29T10:55:47.483Z,2.63
2022-12-29T10:58:10.863Z,2.70
2022-12-29T11:00:32.697Z,2.60
2022-12-29T11:03:01.751Z,2.07
2022-12-29T11:05:27.595Z,1.77
2022-12-29T11:07:49.405Z,1.90
2022-12-29T11:10:21.556Z,2.00
2022-12-29T11:12:42.588Z,1.80
2022-12-29T11:15:12.900Z,2.20
2022-12-29T11:17:44.567Z,3.10
2022-12-29T11:20:21.057Z,1.80
2022-12-29T11:22:45.618Z,1.90
2022-12-29T11:25:08.327Z,2.10
2022-12-29T11:27:29.232Z,1.90
2022-12-29T11:29:51.643Z,2.97
2022-12-29T11:32:13.817Z,5.00
2022-12-29T11:34:35.881Z,2.60
2022-12-29T11:37:01.237Z,2.20
2022-12-29T11:39:35.217Z,3.93
2022-12-29T11:41:56.432Z,2.10
2022-12-29T11:44:17.647Z,3.60
2022-12-29T11:46:39.693Z,3.40
2022-12-29T11:49:01.614Z,2.67
2022-12-29T11:51:27.231Z,2.40
2022-12-29T11:53:49.595Z,1.80
2022-12-29T11:56:13.433Z,2.50
2022-12-29T11:58:35.804Z,2.00
2022-12-29T12:00:57.829Z,1.77
2022-12-29T12:03:21.262Z,1.80
2022-12-29T12:05:45.776Z,2.17
2022-12-29T12:08:17.463Z,2.10
2022-12-29T12:10:45.875Z,1.97
2022-12-29T12:13:13.238Z,2.20
2022-12-29T12:15:45.314Z,2.27
2022-12-29T12:18:10.926Z,2.27
2022-12-29T12:20:37.934Z,2.07
2022-12-29T12:23:04.250Z,2.40
2022-12-29T12:25:26.923Z,1.87
2022-12-29T12:27:50.653Z,2.20
2022-12-29T12:30:15.104Z,2.17
2022-12-29T12:32:44.198Z,2.10
2022-12-29T12:35:06.280Z,2.00
2022-12-29T12:37:42.206Z,2.40
2022-12-29T12:40:18.156Z,2.63
2022-12-29T12:42:44.797Z,2.50
2022-12-29T12:45:16.334Z,2.17
2022-12-29T12:47:45.363Z,2.03
2022-12-29T12:50:18.691Z,2.47
2022-12-29T12:52:45.431Z,2.53
2022-12-29T12:55:17.398Z,2.37
2022-12-29T12:57:48.368Z,1.90
2022-12-29T13:00:12.939Z,2.20
2022-12-29T13:02:38.778Z,2.10
2022-12-29T13:05:10.165Z,1.80
2022-12-29T13:07:36.486Z,1.97
2022-12-29T13:10:03.713Z,2.47
2022-12-29T13:12:32.044Z,1.97
2022-12-29T13:14:58.801Z,1.93
2022-12-29T13:17:22.021Z,2.10
2022-12-29T13:19:47.461Z,1.80
2022-12-29T13:22:11.367Z,1.90
2022-12-29T13:24:36.141Z,1.73
2022-12-29T13:27:01.926Z,1.60
2022-12-29T13:29:25.464Z,2.33
2022-12-29T13:31:52.921Z,2.00
2022-12-29T13:34:17.893Z,2.17
2022-12-29T13:36:40.767Z,2.20
2022-12-29T13:39:07.352Z,2.30
2022-12-29T13:41:31.586Z,2.63
2022-12-29T13:43:53.583Z,2.37
2022-12-29T13:46:16.137Z,2.40
2022-12-29T13:48:39.958Z,2.87
2022-12-29T13:51:03.112Z,2.60
2022-12-29T13:53:30.010Z,2.80
2022-12-29T13:55:53.899Z,3.10
2022-12-29T13:58:17.040Z,3.73
2022-12-29T14:00:43.573Z,3.20
2022-12-29T14:03:26.585Z,3.40
2022-12-29T14:06:05.309Z,3.40
2022-12-29T14:08:26.630Z,2.23
2022-12-29T14:10:49.227Z,2.40
2022-12-29T14:13:14.739Z,2.50
2022-12-29T14:15:42.029Z,2.27
2022-12-29T14:18:17.708Z,2.07
2022-12-29T14:20:39.979Z,2.10
2022-12-29T14:23:02.820Z,2.47
2022-12-29T14:25:38.964Z,2.00
2022-12-29T14:28:00.018Z,2.43
2022-12-29T14:30:45.351Z,2.20
2022-12-29T14:33:15.589Z,2.30
2022-12-29T14:35:41.877Z,1.90
2022-12-29T14:38:17.259Z,2.17
2022-12-29T14:40:38.393Z,2.37
2022-12-29T14:42:59.675Z,2.30
2022-12-29T14:45:29.298Z,2.23
2022-12-29T14:47:50.911Z,4.40
2022-12-29T14:50:16.215Z,3.40
2022-12-29T14:52:45.714Z,2.70
2022-12-29T14:55:21.457Z,3.00
2022-12-29T14:57:43.309Z,2.57
2022-12-29T15:00:07.974Z,3.33
2022-12-29T15:02:34.341Z,3.53
2022-12-29T15:04:56.697Z,3.37
2022-12-29T15:07:20.297Z,3.27
2022-12-29T15:09:44.718Z,3.00
2022-12-29T15:12:11.056Z,3.43
2022-12-29T15:14:38.636Z,3.33
2022-12-29T15:17:00.111Z,5.23
2022-12-29T15:19:23.084Z,5.80
2022-12-29T15:21:44.190Z,3.10
2022-12-29T15:24:07.186Z,3.10
2022-12-29T15:26:38.356Z,3.30
2022-12-29T15:28:59.564Z,6.80
2022-12-29T15:31:28.002Z,4.67
2022-12-29T15:33:52.089Z,4.70
2022-12-29T15:36:14.466Z,4.70
2022-12-29T15:38:40.348Z,4.20
2022-12-29T15:41:06.070Z,3.10
2022-12-29T15:43:33.358Z,3.23
2022-12-29T15:45:55.923Z,2.83
2022-12-29T15:48:19.506Z,3.33
2022-12-29T15:50:44.053Z,2.90
2022-12-29T15:53:11.694Z,3.27
2022-12-29T15:55:35.198Z,2.70
2022-12-29T15:57:59.758Z,2.90
2022-12-29T16:00:25.245Z,3.07
2022-12-29T16:02:46.628Z,3.10
2022-12-29T16:05:17.776Z,2.90
2022-12-29T16:07:42.199Z,3.13
2022-12-29T16:10:04.615Z,2.80
2022-12-29T16:12:26.944Z,3.27
2022-12-29T16:14:50.451Z,3.07
2022-12-29T16:17:14.053Z,3.27
2022-12-29T16:19:37.000Z,3.30
2022-12-29T16:21:59.908Z,4.97
2022-12-29T16:24:22.283Z,9.93
2022-12-29T16:26:47.521Z,21.73
2022-12-29T16:29:09.245Z,9.10
2022-12-29T16:31:36.603Z,26.20
2022-12-29T16:33:57.909Z,11.97
2022-12-29T16:36:24.004Z,10.97
2022-12-29T16:38:47.300Z,10.60
2022-12-29T16:41:08.205Z,6.07
2022-12-29T16:43:30.603Z,6.63
2022-12-29T16:46:06.582Z,5.70
2022-12-29T16:48:29.646Z,6.67
2022-12-29T16:50:51.145Z,6.33
2022-12-29T16:53:20.241Z,6.33
2022-12-29T16:55:47.504Z,6.73
2022-12-29T16:58:19.369Z,6.77
2022-12-29T17:00:40.412Z,6.13
2022-12-29T17:03:02.854Z,4.60
2022-12-29T17:05:25.454Z,4.83
2022-12-29T17:07:47.287Z,5.73
2022-12-29T17:10:08.927Z,4.93
2022-12-29T17:12:31.385Z,4.47
2022-12-29T17:14:54.182Z,4.47
2022-12-29T17:17:17.030Z,4.40
2022-12-29T17:19:39.474Z,4.13
2022-12-29T17:22:01.914Z,4.57
2022-12-29T17:24:22.867Z,3.90
2022-12-29T17:26:44.506Z,3.40
2022-12-29T17:29:05.560Z,3.10
2022-12-29T17:31:26.913Z,3.40
2022-12-29T17:33:49.086Z,3.10
2022-12-29T17:36:11.101Z,3.90
2022-12-29T17:38:36.299Z,4.47
2022-12-29T17:40:57.983Z,3.90
2022-12-29T17:43:20.028Z,3.60
2022-12-29T17:45:41.591Z,2.97
2022-12-29T17:48:03.028Z,4.27
2022-12-29T17:50:24.858Z,4.37
2022-12-29T17:52:47.481Z,2.87
2022-12-29T17:55:16.332Z,2.70
2022-12-29T17:57:37.302Z,3.03
2022-12-29T17:59:58.687Z,3.50
2022-12-29T18:02:24.830Z,2.60
2022-12-29T18:04:46.100Z,2.57
2022-12-29T18:07:11.440Z,2.20
2022-12-29T18:09:32.298Z,1.90
2022-12-29T18:11:55.065Z,2.57
2022-12-29T18:14:17.537Z,3.47
2022-12-29T18:16:38.951Z,3.10
2022-12-29T18:19:00.202Z,2.70
2022-12-29T18:21:22.246Z,2.80
2022-12-29T18:23:43.033Z,2.70
2022-12-29T18:26:05.936Z,3.10
2022-12-29T18:28:29.000Z,3.60
2022-12-29T18:30:50.235Z,3.83
2022-12-29T18:33:19.378Z,3.60
2022-12-29T18:35:43.981Z,4.70
2022-12-29T18:38:05.978Z,3.40
2022-12-29T18:40:26.833Z,5.67
2022-12-29T18:42:47.987Z,4.90
2022-12-29T18:45:16.602Z,4.93
2022-12-29T18:47:37.863Z,3.00
2022-12-29T18:49:59.162Z,3.40
2022-12-29T18:52:20.480Z,3.10
2022-12-29T18:54:41.686Z,3.10
2022-12-29T18:57:02.741Z,2.83
2022-12-29T18:59:23.916Z,2.40
2022-12-29T19:01:46.657Z,2.30
2022-12-29T19:04:07.536Z,2.13
2022-12-29T19:06:28.637Z,1.97
2022-12-29T19:08:49.940Z,2.00
2022-12-29T19:11:11.205Z,1.90
2022-12-29T19:13:33.717Z,2.10
2022-12-29T19:15:55.235Z,1.70
2022-12-29T19:21:01.185Z,2.30
2022-12-29T19:23:23.326Z,2.03
2022-12-29T19:25:44.942Z,2.30
2022-12-29T19:28:06.169Z,1.97
2022-12-29T19:30:27.483Z,2.00
2022-12-29T19:32:49.444Z,2.93
2022-12-29T19:35:12.508Z,1.80
2022-12-29T19:37:36.315Z,2.20
2022-12-29T19:39:57.480Z,2.30
2022-12-29T19:42:18.872Z,2.40
2022-12-29T19:44:40.183Z,2.60
2022-12-29T19:47:01.445Z,2.50
2022-12-29T19:49:23.630Z,2.00
2022-12-29T19:51:46.118Z,2.80
2022-12-29T19:54:07.269Z,2.30
2022-12-29T19:56:28.456Z,2.30
2022-12-29T19:58:50.523Z,1.90
2022-12-29T20:01:12.681Z,1.43
2022-12-29T20:03:34.746Z,1.90
2022-12-29T20:05:56.515Z,1.70
2022-12-29T20:08:19.170Z,2.00
2022-12-29T20:10:40.575Z,2.20
2022-12-29T20:13:02.661Z,2.07
2022-12-29T20:15:23.944Z,2.70
2022-12-29T20:18:12.539Z,2.50
2022-12-29T20:20:26.832Z,2.30
2022-12-29T20:22:48.067Z,2.00
2022-12-29T20:25:43.745Z,12.37
2022-12-29T20:27:52.186Z,3.80
2022-12-29T20:30:13.610Z,2.40
2022-12-29T20:32:35.819Z,2.80
2022-12-29T20:34:57.295Z,3.10
2022-12-29T20:37:18.579Z,2.20
2022-12-29T20:39:40.754Z,2.23
2022-12-29T20:42:03.747Z,2.23
2022-12-29T20:44:25.973Z,4.27
2022-12-29T20:46:47.359Z,3.80
2022-12-29T20:49:09.171Z,14.03
2022-12-29T20:51:59.243Z,6.23
2022-12-29T20:54:11.498Z,5.47
2022-12-29T20:56:32.449Z,3.53
2022-12-29T21:01:36.898Z,2.60
2022-12-29T21:03:58.366Z,2.50
2022-12-29T21:06:19.872Z,2.60
2022-12-29T21:08:41.312Z,2.37
2022-12-29T21:11:03.262Z,2.00
2022-12-29T21:13:24.553Z,2.80
2022-12-29T21:15:47.354Z,2.90
2022-12-29T21:18:08.699Z,2.53
2022-12-29T21:20:32.908Z,7.90
2022-12-29T21:22:54.062Z,23.20
2022-12-29T21:25:15.313Z,12.63
2022-12-29T21:27:36.576Z,7.40
2022-12-29T21:29:58.393Z,6.80
2022-12-29T21:32:21.071Z,3.27
2022-12-29T21:34:42.417Z,3.47
2022-12-29T21:37:03.849Z,2.47
2022-12-29T21:39:25.142Z,2.60
2022-12-29T21:41:47.328Z,2.63
2022-12-29T21:44:27.087Z,2.53
2022-12-29T21:46:48.725Z,2.00
2022-12-29T21:49:11.447Z,1.80
2022-12-29T21:51:50.915Z,1.77
2022-12-29T21:54:29.333Z,1.40
2022-12-29T21:56:51.894Z,1.40
2022-12-29T21:59:30.721Z,1.60
2022-12-29T22:02:09.695Z,1.60
2022-12-29T22:04:49.716Z,1.40
2022-12-29T22:07:29.576Z,1.40
2022-12-29T22:10:08.692Z,1.20
2022-12-29T22:12:48.458Z,1.50
2022-12-29T22:15:10.370Z,1.50
2022-12-29T22:17:35.172Z,1.13
2022-12-29T22:20:00.155Z,1.20
2022-12-29T22:22:21.528Z,1.00
2022-12-29T22:24:42.882Z,1.10
2022-12-29T22:27:04.368Z,1.20
2022-12-29T22:29:25.660Z,1.20
2022-12-29T22:31:47.067Z,1.27
2022-12-29T22:34:08.448Z,2.03
2022-12-29T22:36:30.991Z,8.37
2022-12-29T22:38:52.081Z,2.10
2022-12-29T22:41:13.433Z,1.60
2022-12-29T22:43:34.673Z,9.27
2022-12-29T22:45:55.734Z,18.47
2022-12-29T22:48:17.015Z,7.07
2022-12-29T22:50:39.793Z,1.57
2022-12-29T22:53:02.253Z,3.63
2022-12-29T22:55:23.454Z,2.97
2022-12-29T22:57:44.827Z,8.27
2022-12-29T23:00:08.094Z,1.53
2022-12-29T23:02:30.342Z,1.90
2022-12-29T23:05:03.654Z,1.30
2022-12-29T23:07:26.000Z,27.13
2022-12-29T23:09:48.820Z,21.27
2022-12-29T23:12:10.104Z,5.37
2022-12-29T23:14:31.324Z,10.57
2022-12-29T23:16:53.130Z,24.07
2022-12-29T23:19:14.909Z,24.80
2022-12-29T23:21:36.169Z,2.00
2022-12-29T23:23:58.273Z,1.70
2022-12-29T23:26:21.940Z,1.73
2022-12-29T23:28:43.475Z,1.67
2022-12-29T23:31:04.991Z,1.40
2022-12-29T23:33:26.291Z,1.70
2022-12-29T23:35:47.621Z,2.00
2022-12-29T23:38:09.061Z,1.70
2022-12-29T23:40:30.368Z,1.70
2022-12-29T23:42:53.106Z,1.90
2022-12-29T23:45:14.487Z,1.70
2022-12-29T23:47:35.780Z,1.40
2022-12-29T23:49:56.932Z,1.50
2022-12-29T23:52:18.137Z,1.63
2022-12-29T23:54:39.400Z,1.70
2022-12-29T23:57:00.854Z,2.07
2022-12-29T23:59:23.284Z,2.80
